Time;durP1;ratioP1;P1;durP2;ratioP2;P2;SDS_P1;SDS_P2;PMS_P1;PMS_P2;Temp;Humidity;BMP_temperature;BMP_pressure;BME280_temperature;BME280_humidity;BME280_pressure;Samples;Min_cycle;Max_cycle;Signal;HPM_P1;HPM_P2
2024/04/24 00:02:23;;;;;;;18.53;9.90;;;;;;;;;;5397735;26;20000;-76
2024/04/24 00:04:49;;;;;;;19.70;10.60;;;;;;;;;;5389931;26;20067;-76
2024/04/24 00:07:15;;;;;;;20.47;10.70;;;;;;;;;;5368061;26;20008;-76
2024/04/24 00:09:41;;;;;;;17.73;9.50;;;;;;;;;;5389176;26;19984;-76
2024/04/24 00:12:07;;;;;;;19.70;10.87;;;;;;;;;;5368354;26;20000;-76
2024/04/24 00:14:35;;;;;;;21.27;10.30;;;;;;;;;;5362388;26;19999;-76
2024/04/24 00:17:01;;;;;;;17.60;9.23;;;;;;;;;;5397122;26;19995;-76
2024/04/24 00:19:31;;;;;;;18.93;8.80;;;;;;;;;;5391240;26;19996;-76
2024/04/24 00:21:57;;;;;;;17.87;8.77;;;;;;;;;;5363162;26;19996;-76
2024/04/24 00:24:23;;;;;;;16.77;9.40;;;;;;;;;;5398937;26;20056;-76
2024/04/24 00:26:49;;;;;;;18.80;8.70;;;;;;;;;;5394611;26;20008;-76
2024/04/24 00:29:15;;;;;;;16.50;8.60;;;;;;;;;;5401003;26;19992;-76
2024/04/24 00:31:41;;;;;;;19.10;7.90;;;;;;;;;;5400597;26;20010;-76
2024/04/24 00:34:07;;;;;;;19.37;7.93;;;;;;;;;;5393359;26;20036;-76
2024/04/24 00:36:35;;;;;;;13.47;7.10;;;;;;;;;;5400565;26;19996;-75
2024/04/24 00:39:01;;;;;;;15.73;7.33;;;;;;;;;;5400201;26;19996;-75
2024/04/24 00:41:29;;;;;;;16.97;8.13;;;;;;;;;;5366072;26;20012;-76
2024/04/24 00:43:55;;;;;;;14.57;7.30;;;;;;;;;;5400494;26;19996;-75
2024/04/24 00:46:23;;;;;;;18.10;6.37;;;;;;;;;;5395097;26;19993;-76
2024/04/24 00:48:52;;;;;;;12.53;6.20;;;;;;;;;;5399318;26;20047;-76
2024/04/24 00:51:19;;;;;;;11.53;5.87;;;;;;;;;;5364565;26;19996;-75
2024/04/24 00:53:45;;;;;;;12.00;6.00;;;;;;;;;;5366890;26;20007;-75
2024/04/24 00:56:11;;;;;;;9.17;5.33;;;;;;;;;;5395348;26;20004;-75
2024/04/24 00:58:37;;;;;;;9.70;5.53;;;;;;;;;;5399526;26;19999;-75
2024/04/24 01:01:03;;;;;;;12.70;5.37;;;;;;;;;;5396397;26;20016;-75
2024/04/24 01:03:31;;;;;;;12.33;5.30;;;;;;;;;;5392930;26;20000;-75
2024/04/24 01:05:56;;;;;;;9.27;4.60;;;;;;;;;;5392544;26;19999;-75
2024/04/24 01:08:25;;;;;;;11.33;4.87;;;;;;;;;;5399895;26;19988;-76
2024/04/24 01:10:58;;;;;;;11.00;4.93;;;;;;;;;;5400330;26;20258;-76
2024/04/24 01:13:24;;;;;;;12.10;5.38;;;;;;;;;;5400732;26;19988;-75
2024/04/24 01:15:54;;;;;;;9.47;5.07;;;;;;;;;;5370994;26;20030;-77
2024/04/24 01:18:21;;;;;;;11.07;4.57;;;;;;;;;;5398789;26;19992;-75
2024/04/24 01:20:47;;;;;;;12.63;5.50;;;;;;;;;;5393191;26;19992;-75
2024/04/24 01:23:13;;;;;;;11.30;4.90;;;;;;;;;;5370798;26;19996;-75
2024/04/24 01:25:39;;;;;;;8.53;4.30;;;;;;;;;;5366852;26;20011;-75
2024/04/24 01:28:05;;;;;;;9.20;4.60;;;;;;;;;;5401161;26;19992;-75
2024/04/24 01:30:34;;;;;;;9.53;4.87;;;;;;;;;;5401485;26;19999;-75
2024/04/24 01:33:02;;;;;;;12.03;5.10;;;;;;;;;;5366111;26;20008;-75
2024/04/24 01:35:28;;;;;;;14.20;4.17;;;;;;;;;;5391373;26;19996;-75
2024/04/24 01:37:54;;;;;;;11.03;3.80;;;;;;;;;;5400063;26;20003;-75
2024/04/24 01:40:21;;;;;;;9.37;4.10;;;;;;;;;;5394942;26;20031;-74
2024/04/24 01:42:47;;;;;;;10.57;3.83;;;;;;;;;;5371691;26;20018;-74
2024/04/24 01:45:13;;;;;;;9.50;3.53;;;;;;;;;;5401188;26;20004;-76
2024/04/24 01:47:39;;;;;;;13.20;3.10;;;;;;;;;;5363157;26;19996;-75
2024/04/24 01:50:05;;;;;;;10.60;3.93;;;;;;;;;;5391642;26;19991;-74
2024/04/24 01:52:31;;;;;;;12.37;4.00;;;;;;;;;;5393892;26;20020;-75
2024/04/24 01:54:57;;;;;;;6.20;2.93;;;;;;;;;;5396152;26;19997;-75
2024/04/24 01:57:23;;;;;;;8.53;3.00;;;;;;;;;;5367842;26;20043;-74
2024/04/24 01:59:49;;;;;;;8.07;2.90;;;;;;;;;;5401173;26;20008;-75
2024/04/24 02:02:15;;;;;;;7.90;3.17;;;;;;;;;;5395656;26;19988;-75
2024/04/24 02:04:41;;;;;;;6.07;2.50;;;;;;;;;;5400377;26;20140;-75
2024/04/24 02:07:07;;;;;;;5.90;2.20;;;;;;;;;;5400695;26;19989;-75
2024/04/24 02:09:35;;;;;;;8.70;2.67;;;;;;;;;;5400755;26;19988;-75
2024/04/24 02:12:01;;;;;;;11.70;2.47;;;;;;;;;;5361110;26;19996;-74
2024/04/24 02:14:28;;;;;;;7.20;1.97;;;;;;;;;;5393062;26;20012;-75
2024/04/24 02:16:54;;;;;;;13.27;2.50;;;;;;;;;;5364345;26;20008;-74
2024/04/24 02:19:20;;;;;;;10.60;2.50;;;;;;;;;;5393740;26;20003;-74
2024/04/24 02:21:46;;;;;;;9.40;2.27;;;;;;;;;;5394669;26;20035;-75
2024/04/24 02:25:33;;;;;;;9.57;2.53;;;;;;;;;;5365231;26;19992;-74
2024/04/24 02:26:58;;;;;;;5.73;2.03;;;;;;;;;;5400414;26;20019;-74
2024/04/24 02:29:24;;;;;;;5.17;1.97;;;;;;;;;;5400841;26;20023;-74
2024/04/24 02:31:54;;;;;;;3.90;2.20;;;;;;;;;;5400968;26;19996;-74
2024/04/24 02:34:20;;;;;;;6.23;1.60;;;;;;;;;;5400059;26;20008;-74
2024/04/24 02:36:46;;;;;;;6.20;1.53;;;;;;;;;;5395228;26;20000;-74
2024/04/24 02:39:12;;;;;;;6.93;1.50;;;;;;;;;;5400601;26;19989;-74
2024/04/24 02:41:38;;;;;;;5.90;1.27;;;;;;;;;;5400007;26;19996;-74
2024/04/24 02:44:04;;;;;;;6.60;3.07;;;;;;;;;;5395968;26;20033;-74
2024/04/24 02:46:30;;;;;;;2.63;0.93;;;;;;;;;;5370811;26;19996;-74
2024/04/24 02:48:56;;;;;;;4.73;1.87;;;;;;;;;;5400643;26;20500;-75
2024/04/24 02:51:22;;;;;;;2.47;1.10;;;;;;;;;;5395512;26;20015;-74
2024/04/24 02:53:48;;;;;;;7.60;2.30;;;;;;;;;;5390548;26;19984;-74
2024/04/24 02:56:14;;;;;;;4.80;1.13;;;;;;;;;;5393403;26;19995;-74
2024/04/24 02:58:40;;;;;;;1.83;1.10;;;;;;;;;;5400461;26;19992;-74
2024/04/24 03:01:17;;;;;;;2.67;1.23;;;;;;;;;;5400880;26;19984;-74
2024/04/24 03:03:43;;;;;;;5.33;1.00;;;;;;;;;;5364947;26;20008;-74
2024/04/24 03:06:09;;;;;;;6.60;1.43;;;;;;;;;;5401741;26;20037;-74
2024/04/24 03:08:35;;;;;;;2.77;0.97;;;;;;;;;;5399858;26;20008;-74
2024/04/24 03:11:02;;;;;;;5.17;0.90;;;;;;;;;;5399527;26;19996;-74
2024/04/24 03:13:28;;;;;;;1.87;1.17;;;;;;;;;;5362984;26;20034;-74
2024/04/24 03:15:54;;;;;;;2.77;1.00;;;;;;;;;;5391905;26;20008;-74
2024/04/24 03:18:20;;;;;;;2.80;1.10;;;;;;;;;;5361351;26;20012;-73
2024/04/24 03:20:46;;;;;;;5.17;1.77;;;;;;;;;;5394926;26;19996;-74
2024/04/24 03:23:14;;;;;;;7.67;1.70;;;;;;;;;;5361029;26;20012;-73
2024/04/24 03:25:43;;;;;;;5.27;1.60;;;;;;;;;;5392724;26;19988;-74
2024/04/24 03:28:09;;;;;;;4.30;1.33;;;;;;;;;;5400055;26;19992;-74
2024/04/24 03:30:34;;;;;;;7.03;1.53;;;;;;;;;;5399280;26;20040;-74
2024/04/24 03:33:01;;;;;;;3.03;1.43;;;;;;;;;;5390594;26;20005;-74
2024/04/24 03:35:27;;;;;;;4.47;1.33;;;;;;;;;;5393004;26;20055;-75
2024/04/24 03:37:53;;;;;;;5.53;2.13;;;;;;;;;;5399558;26;19999;-74
2024/04/24 03:40:19;;;;;;;5.50;2.00;;;;;;;;;;5393467;26;19988;-74
2024/04/24 03:42:45;;;;;;;9.17;1.90;;;;;;;;;;5398284;26;20036;-73
2024/04/24 03:45:13;;;;;;;4.63;1.80;;;;;;;;;;5397908;26;19996;-74
2024/04/24 03:47:40;;;;;;;13.03;2.30;;;;;;;;;;5362906;26;19989;-74
2024/04/24 03:50:06;;;;;;;7.33;2.10;;;;;;;;;;5397256;26;20020;-74
2024/04/24 03:52:32;;;;;;;7.37;2.57;;;;;;;;;;5399152;26;19992;-74
2024/04/24 03:55:01;;;;;;;10.40;3.57;;;;;;;;;;5399181;26;20016;-74
2024/04/24 03:57:27;;;;;;;9.23;2.23;;;;;;;;;;5393737;26;20000;-74
2024/04/24 03:59:55;;;;;;;4.70;2.17;;;;;;;;;;5398247;26;20067;-74
2024/04/24 04:02:21;;;;;;;6.43;2.47;;;;;;;;;;5395161;26;20014;-74
2024/04/24 04:04:47;;;;;;;8.67;2.33;;;;;;;;;;5391226;26;19992;-75
2024/04/24 04:07:13;;;;;;;8.57;2.40;;;;;;;;;;5363729;26;19996;-74
2024/04/24 04:09:39;;;;;;;7.80;2.33;;;;;;;;;;5363250;26;20001;-74
2024/04/24 04:12:07;;;;;;;5.50;2.37;;;;;;;;;;5398180;26;20008;-74
2024/04/24 04:14:34;;;;;;;10.27;2.70;;;;;;;;;;5397845;26;19988;-74
2024/04/24 04:17:00;;;;;;;10.80;2.23;;;;;;;;;;5394169;26;19996;-74
2024/04/24 04:19:26;;;;;;;13.10;3.27;;;;;;;;;;5363245;26;20000;-73
2024/04/24 04:21:52;;;;;;;6.87;2.83;;;;;;;;;;5397863;26;19992;-74
2024/04/24 04:24:18;;;;;;;10.07;3.07;;;;;;;;;;5399475;26;20333;-74
2024/04/24 04:26:46;;;;;;;6.97;2.57;;;;;;;;;;5393922;26;20029;-74
2024/04/24 04:29:12;;;;;;;8.90;2.67;;;;;;;;;;5398703;26;20051;-74
2024/04/24 04:31:43;;;;;;;9.50;2.60;;;;;;;;;;5369074;26;19997;-74
2024/04/24 04:34:21;;;;;;;7.63;2.27;;;;;;;;;;5395044;26;19995;-74
2024/04/24 04:36:47;;;;;;;9.03;2.63;;;;;;;;;;5397965;26;20009;-74
2024/04/24 04:39:20;;;;;;;8.83;2.40;;;;;;;;;;5393596;26;20083;-74
2024/04/24 04:41:46;;;;;;;12.73;2.90;;;;;;;;;;5397595;26;19997;-74
2024/04/24 04:44:15;;;;;;;7.20;3.30;;;;;;;;;;5360798;26;20001;-74
2024/04/24 04:46:41;;;;;;;5.77;2.37;;;;;;;;;;5394924;26;20004;-74
2024/04/24 04:49:27;;;;;;;11.93;2.33;;;;;;;;;;5388943;26;20027;-74
2024/04/24 04:51:53;;;;;;;8.13;2.60;;;;;;;;;;5392545;26;19992;-74
2024/04/24 04:54:19;;;;;;;6.53;2.33;;;;;;;;;;5368715;26;20011;-74
2024/04/24 04:56:48;;;;;;;6.90;3.00;;;;;;;;;;5399702;26;20034;-74
2024/04/24 04:59:14;;;;;;;9.50;2.33;;;;;;;;;;5397479;26;20011;-74
2024/04/24 05:01:40;;;;;;;7.27;1.97;;;;;;;;;;5367618;26;20012;-74
2024/04/24 05:04:08;;;;;;;4.70;2.57;;;;;;;;;;5398240;26;19988;-74
2024/04/24 05:06:34;;;;;;;6.37;1.87;;;;;;;;;;5398438;26;19996;-74
2024/04/24 05:09:02;;;;;;;5.70;1.93;;;;;;;;;;5365481;26;20007;-74
2024/04/24 05:11:49;;;;;;;;;;;;;;;;;;;;;
2024/04/24 05:14:24;;;;;;;5.60;1.60;;;;;;;;;;5400377;26;20004;-75
2024/04/24 05:17:08;;;;;;;8.33;1.70;;;;;;;;;;5401209;26;20012;-75
2024/04/24 05:20:02;;;;;;;2.63;1.67;;;;;;;;;;5372039;26;20050;-74
2024/04/24 05:22:46;;;;;;;;;;;;;;;;;;;;;
2024/04/24 05:25:25;;;;;;;;;;;;;;;;;;;;;
2024/04/24 05:30:51;;;;;;;6.27;2.90;;;;;;;;;;5400993;26;20119;-76
2024/04/24 05:33:24;;;;;;;6.97;3.33;;;;;;;;;;5400521;26;20000;-77
2024/04/24 05:35:53;;;;;;;10.03;2.90;;;;;;;;;;5401725;26;20022;-74
2024/04/24 05:38:21;;;;;;;9.60;3.40;;;;;;;;;;5400251;26;20028;-76
2024/04/24 05:40:51;;;;;;;6.77;2.83;;;;;;;;;;5395894;26;19996;-74
2024/04/24 05:46:18;;;;;;;8.17;3.30;;;;;;;;;;5400950;26;19999;-75
2024/04/24 05:48:44;;;;;;;6.57;2.73;;;;;;;;;;5400647;26;19999;-74
2024/04/24 05:51:33;;;;;;;12.47;3.83;;;;;;;;;;5365402;26;20017;-74
2024/04/24 05:54:17;;;;;;;9.03;4.20;;;;;;;;;;5374415;26;20000;-75
2024/04/24 05:56:53;;;;;;;5.47;3.13;;;;;;;;;;5393175;26;19988;-74
2024/04/24 05:59:30;;;;;;;9.87;3.27;;;;;;;;;;5364921;26;20003;-73
2024/04/24 06:02:05;;;;;;;5.27;3.23;;;;;;;;;;5393149;26;19996;-74
2024/04/24 06:04:50;;;;;;;;;;;;;;;;;;;;;
2024/04/24 06:07:19;;;;;;;7.63;3.40;;;;;;;;;;5400907;26;20000;-75
2024/04/24 06:09:47;;;;;;;16.70;5.07;;;;;;;;;;5370977;26;20000;-74
2024/04/24 06:12:43;;;;;;;12.17;3.37;;;;;;;;;;5400115;26;20038;-76
2024/04/24 06:15:11;;;;;;;6.93;4.03;;;;;;;;;;5393993;26;20080;-74
2024/04/24 06:17:37;;;;;;;6.90;2.90;;;;;;;;;;5398077;26;20004;-73
2024/04/24 06:20:11;;;;;;;11.63;4.10;;;;;;;;;;5393442;26;20015;-74
2024/04/24 06:22:56;;;;;;;;;;;;;;;;;;;;;
2024/04/24 06:25:24;;;;;;;6.27;2.80;;;;;;;;;;5399557;26;19992;-76
2024/04/24 06:27:57;;;;;;;6.57;2.77;;;;;;;;;;5388500;26;20627;-74
2024/04/24 06:30:31;;;;;;;6.27;3.53;;;;;;;;;;5394090;26;20004;-76
2024/04/24 06:33:03;;;;;;;4.50;2.50;;;;;;;;;;5390994;26;19992;-75
2024/04/24 06:35:42;;;;;;;3.53;2.15;;;;;;;;;;5397275;26;19997;-75
2024/04/24 06:38:14;;;;;;;7.23;2.23;;;;;;;;;;5390769;26;20031;-76
2024/04/24 06:40:53;;;;;;;5.00;1.63;;;;;;;;;;5397085;26;19992;-78
2024/04/24 06:43:20;;;;;;;3.67;1.40;;;;;;;;;;5382215;26;20046;-77
2024/04/24 06:45:46;;;;;;;3.80;1.77;;;;;;;;;;5384933;26;20011;-78
2024/04/24 06:48:12;;;;;;;2.30;1.50;;;;;;;;;;5386465;26;20040;-76
2024/04/24 06:50:38;;;;;;;6.27;1.30;;;;;;;;;;5353052;26;20012;-78
2024/04/24 06:53:04;;;;;;;3.73;1.47;;;;;;;;;;5385948;26;19992;-79
2024/04/24 06:55:31;;;;;;;7.10;1.40;;;;;;;;;;5382497;26;20060;-77
2024/04/24 06:57:57;;;;;;;3.27;1.60;;;;;;;;;;5372148;26;20008;-77
2024/04/24 07:00:24;;;;;;;3.07;1.50;;;;;;;;;;5383105;26;19996;-77
2024/04/24 07:02:50;;;;;;;7.60;2.40;;;;;;;;;;5379319;26;20047;-79
2024/04/24 07:05:19;;;;;;;3.70;1.90;;;;;;;;;;5383553;26;20011;-76
2024/04/24 07:07:47;;;;;;;8.57;2.27;;;;;;;;;;5356014;26;20395;-78
2024/04/24 07:18:09;;;;;;;4.90;1.43;;;;;;;;;;5390504;26;20036;-78
2024/04/24 07:20:35;;;;;;;4.93;2.00;;;;;;;;;;5366059;26;20007;-79
2024/04/24 07:23:01;;;;;;;4.73;1.30;;;;;;;;;;5349753;26;20048;-80
2024/04/24 07:25:27;;;;;;;5.30;2.27;;;;;;;;;;5360479;26;20003;-79
2024/04/24 07:27:53;;;;;;;5.90;2.37;;;;;;;;;;5369336;26;20014;-78
2024/04/24 07:30:22;;;;;;;3.50;2.13;;;;;;;;;;5373661;26;20024;-76
2024/04/24 07:32:48;;;;;;;4.93;1.93;;;;;;;;;;5375696;26;20017;-76
2024/04/24 07:35:14;;;;;;;3.03;1.70;;;;;;;;;;5403396;26;20004;-78
2024/04/24 07:37:41;;;;;;;4.67;1.63;;;;;;;;;;5365325;26;20001;-78
2024/04/24 07:40:07;;;;;;;6.33;1.80;;;;;;;;;;5357175;26;20313;-75
2024/04/24 07:42:33;;;;;;;6.47;1.50;;;;;;;;;;5361999;26;20007;-76
2024/04/24 07:44:59;;;;;;;2.40;1.10;;;;;;;;;;5364414;26;20051;-80
2024/04/24 07:47:28;;;;;;;2.10;1.00;;;;;;;;;;5362732;26;20663;-77
2024/04/24 07:49:54;;;;;;;1.90;0.90;;;;;;;;;;5363490;26;20004;-80
2024/04/24 07:52:22;;;;;;;5.77;1.17;;;;;;;;;;5365592;26;20661;-75
2024/04/24 07:54:51;;;;;;;5.50;1.13;;;;;;;;;;5386208;26;20004;-80
2024/04/24 07:57:17;;;;;;;4.67;0.90;;;;;;;;;;5357871;26;20001;-77
2024/04/24 07:59:43;;;;;;;5.03;1.23;;;;;;;;;;5350561;26;20001;-78
2024/04/24 08:02:09;;;;;;;3.20;0.80;;;;;;;;;;5371044;26;20007;-79
2024/04/24 08:04:35;;;;;;;5.90;0.63;;;;;;;;;;5369225;26;20004;-76
2024/04/24 08:07:01;;;;;;;3.90;1.00;;;;;;;;;;5353323;26;20013;-79
2024/04/24 08:09:27;;;;;;;7.27;1.40;;;;;;;;;;5346726;26;20000;-78
2024/04/24 08:11:53;;;;;;;2.43;0.80;;;;;;;;;;5349854;26;20338;-77
2024/04/24 08:14:19;;;;;;;6.90;1.10;;;;;;;;;;5352488;26;20001;-79
2024/04/24 08:16:45;;;;;;;5.60;1.17;;;;;;;;;;5363276;26;20330;-77
2024/04/24 08:19:14;;;;;;;6.93;0.80;;;;;;;;;;5363424;26;20676;-74
2024/04/24 08:21:40;;;;;;;2.50;1.10;;;;;;;;;;5360109;26;20043;-75
2024/04/24 08:24:08;;;;;;;4.63;1.50;;;;;;;;;;5373546;26;20004;-75
2024/04/24 08:26:34;;;;;;;7.57;1.13;;;;;;;;;;5363798;26;20000;-80
2024/04/24 08:29:03;;;;;;;6.80;1.13;;;;;;;;;;5357632;26;20025;-77
2024/04/24 08:31:29;;;;;;;2.90;1.37;;;;;;;;;;5354714;26;20004;-79
2024/04/24 08:33:55;;;;;;;4.43;1.03;;;;;;;;;;5360951;26;20001;-76
2024/04/24 08:36:23;;;;;;;4.03;1.17;;;;;;;;;;5366089;26;20009;-79
2024/04/24 08:38:59;;;;;;;6.00;1.07;;;;;;;;;;5362022;26;20053;-79
2024/04/24 08:41:26;;;;;;;4.00;0.90;;;;;;;;;;5363925;26;20477;-77
2024/04/24 08:43:52;;;;;;;4.40;1.30;;;;;;;;;;5366633;26;20051;-77
2024/04/24 08:46:19;;;;;;;4.37;1.03;;;;;;;;;;5363604;26;20005;-76
2024/04/24 08:48:45;;;;;;;2.80;0.97;;;;;;;;;;5364412;26;20861;-78
2024/04/24 08:51:12;;;;;;;7.97;1.00;;;;;;;;;;5373237;26;20004;-78
2024/04/24 08:53:46;;;;;;;6.20;1.13;;;;;;;;;;5370688;26;20011;-75
2024/04/24 08:56:15;;;;;;;3.80;1.10;;;;;;;;;;5382041;26;20004;-78
2024/04/24 08:58:41;;;;;;;5.37;1.47;;;;;;;;;;5379307;26;19997;-74
2024/04/24 09:01:13;;;;;;;3.07;0.80;;;;;;;;;;5383283;26;19993;-75
2024/04/24 09:03:44;;;;;;;3.88;1.08;;;;;;;;;;5380615;26;19998;-75
2024/04/24 09:06:11;;;;;;;7.23;1.50;;;;;;;;;;5376387;26;19986;-74
2024/04/24 09:08:45;;;;;;;3.67;0.90;;;;;;;;;;5381660;26;20001;-76
2024/04/24 09:11:11;;;;;;;2.30;0.67;;;;;;;;;;5383915;26;19985;-74
2024/04/24 09:13:42;;;;;;;6.13;0.80;;;;;;;;;;5382623;26;19988;-75
2024/04/24 09:16:14;;;;;;;9.13;1.47;;;;;;;;;;5385285;26;19993;-74
2024/04/24 09:18:43;;;;;;;3.83;1.17;;;;;;;;;;5382990;26;20016;-76
2024/04/24 09:21:11;;;;;;;4.90;0.90;;;;;;;;;;5383677;26;19993;-73
2024/04/24 09:23:37;;;;;;;4.60;0.80;;;;;;;;;;5398852;26;20005;-74
2024/04/24 09:26:04;;;;;;;3.93;1.03;;;;;;;;;;5406507;26;19992;-74
2024/04/24 09:28:30;;;;;;;9.17;1.97;;;;;;;;;;5383125;26;20053;-75
2024/04/24 09:31:00;;;;;;;9.67;1.97;;;;;;;;;;5385823;26;20008;-74
2024/04/24 09:33:28;;;;;;;2.63;0.80;;;;;;;;;;5387941;26;19993;-75
2024/04/24 09:35:54;;;;;;;6.17;1.00;;;;;;;;;;5382136;26;19988;-75
2024/04/24 09:38:23;;;;;;;3.93;0.70;;;;;;;;;;5388087;26;20012;-75
2024/04/24 09:40:57;;;;;;;3.70;0.83;;;;;;;;;;5386843;26;20000;-74
2024/04/24 09:43:26;;;;;;;9.57;1.40;;;;;;;;;;5380910;26;20008;-75
2024/04/24 09:45:55;;;;;;;4.17;1.10;;;;;;;;;;5381834;26;20063;-75
2024/04/24 09:48:21;;;;;;;1.73;0.77;;;;;;;;;;5383059;26;19989;-74
2024/04/24 09:50:53;;;;;;;2.80;0.60;;;;;;;;;;5380748;26;20008;-74
2024/04/24 09:53:21;;;;;;;3.17;0.60;;;;;;;;;;5394311;26;19989;-76
2024/04/24 09:55:54;;;;;;;3.67;1.17;;;;;;;;;;5382968;26;20003;-77
2024/04/24 09:58:22;;;;;;;3.92;0.70;;;;;;;;;;5380791;26;20075;-74
2024/04/24 10:00:52;;;;;;;2.30;0.47;;;;;;;;;;5377481;26;20011;-75
2024/04/24 10:03:19;;;;;;;3.53;0.60;;;;;;;;;;5383064;26;20004;-76
2024/04/24 10:05:49;;;;;;;4.93;0.80;;;;;;;;;;5400789;26;20050;-75
2024/04/24 10:08:16;;;;;;;6.30;1.50;;;;;;;;;;5382978;26;20001;-76
2024/04/24 10:10:47;;;;;;;3.23;0.80;;;;;;;;;;5384626;26;20208;-75
2024/04/24 10:13:13;;;;;;;2.73;1.00;;;;;;;;;;5383922;26;20004;-75
2024/04/24 10:15:54;;;;;;;2.50;0.70;;;;;;;;;;5398529;26;20004;-74
2024/04/24 10:18:20;;;;;;;1.87;0.40;;;;;;;;;;5378051;26;20049;-75
2024/04/24 10:20:49;;;;;;;2.03;0.70;;;;;;;;;;5379960;26;20046;-76
2024/04/24 10:23:16;;;;;;;1.60;0.67;;;;;;;;;;5380072;26;19988;-75
2024/04/24 10:25:43;;;;;;;1.43;0.73;;;;;;;;;;5380436;26;20036;-76
2024/04/24 10:28:09;;;;;;;1.33;0.40;;;;;;;;;;5383135;26;19989;-74
2024/04/24 10:30:37;;;;;;;3.97;0.70;;;;;;;;;;5376907;26;20000;-75
2024/04/24 10:33:05;;;;;;;2.70;0.50;;;;;;;;;;5371048;26;19999;-74
2024/04/24 10:35:31;;;;;;;1.30;0.50;;;;;;;;;;5382119;26;19993;-74
2024/04/24 10:37:57;;;;;;;3.40;0.70;;;;;;;;;;5383974;26;19993;-76
2024/04/24 10:40:24;;;;;;;2.50;0.40;;;;;;;;;;5395866;26;20034;-76
2024/04/24 10:42:50;;;;;;;2.43;0.60;;;;;;;;;;5379359;26;19996;-78
2024/04/24 10:45:19;;;;;;;2.73;0.93;;;;;;;;;;5380625;26;20053;-75
2024/04/24 10:47:47;;;;;;;1.63;0.53;;;;;;;;;;5383417;26;20000;-76
2024/04/24 10:50:14;;;;;;;3.53;1.20;;;;;;;;;;5383583;26;20043;-75
2024/04/24 10:52:52;;;;;;;4.80;1.07;;;;;;;;;;5384003;26;20007;-75
2024/04/24 10:55:18;;;;;;;3.83;1.10;;;;;;;;;;5383553;26;20019;-75
2024/04/24 10:57:51;;;;;;;2.00;1.10;;;;;;;;;;5383261;26;20220;-78
2024/04/24 11:00:21;;;;;;;4.27;0.77;;;;;;;;;;5384052;26;19989;-76
2024/04/24 11:02:48;;;;;;;6.30;1.83;;;;;;;;;;5385463;26;19996;-75
2024/04/24 11:05:17;;;;;;;2.03;0.63;;;;;;;;;;5378904;26;19989;-74
2024/04/24 11:07:43;;;;;;;5.20;0.63;;;;;;;;;;5389829;26;20003;-75
2024/04/24 11:10:10;;;;;;;2.90;0.70;;;;;;;;;;5381678;26;19999;-75
2024/04/24 11:12:37;;;;;;;5.60;1.10;;;;;;;;;;5385337;26;19996;-76
2024/04/24 11:15:03;;;;;;;4.43;1.00;;;;;;;;;;5378906;26;19989;-76
2024/04/24 11:17:32;;;;;;;3.67;1.23;;;;;;;;;;5382697;26;20040;-76
2024/04/24 11:20:01;;;;;;;1.60;0.63;;;;;;;;;;5387122;26;20001;-75
2024/04/24 11:22:30;;;;;;;2.23;0.60;;;;;;;;;;5380500;26;20007;-75
2024/04/24 11:24:56;;;;;;;1.80;0.80;;;;;;;;;;5382133;26;19996;-76
2024/04/24 11:27:25;;;;;;;2.23;0.80;;;;;;;;;;5384459;26;20000;-75
2024/04/24 11:29:55;;;;;;;4.53;1.20;;;;;;;;;;5383356;26;20009;-74
2024/04/24 11:32:22;;;;;;;1.70;0.73;;;;;;;;;;5382829;26;19992;-76
2024/04/24 11:34:51;;;;;;;1.83;0.63;;;;;;;;;;5376169;26;20013;-75
2024/04/24 11:37:18;;;;;;;1.97;0.70;;;;;;;;;;5382886;26;19996;-75
2024/04/24 11:39:44;;;;;;;2.20;1.10;;;;;;;;;;5378978;26;19997;-76
2024/04/24 11:42:10;;;;;;;3.40;1.23;;;;;;;;;;5378918;26;20016;-74
2024/04/24 11:44:36;;;;;;;2.47;0.90;;;;;;;;;;5374407;26;20005;-76
2024/04/24 11:47:02;;;;;;;6.87;1.27;;;;;;;;;;5377884;26;20012;-77
2024/04/24 11:49:28;;;;;;;3.60;1.37;;;;;;;;;;5375095;26;20038;-76
2024/04/24 11:51:54;;;;;;;6.80;1.70;;;;;;;;;;5378097;26;20000;-76
2024/04/24 11:54:20;;;;;;;7.50;2.30;;;;;;;;;;5380067;26;19988;-76
2024/04/24 11:56:49;;;;;;;5.03;1.43;;;;;;;;;;5377760;26;20012;-75
2024/04/24 11:59:15;;;;;;;4.60;1.43;;;;;;;;;;5383305;26;20000;-75
2024/04/24 12:01:41;;;;;;;3.50;2.13;;;;;;;;;;5382641;26;20007;-75
2024/04/24 12:04:07;;;;;;;4.23;1.33;;;;;;;;;;5380035;26;20047;-76
2024/04/24 12:06:38;;;;;;;4.90;1.30;;;;;;;;;;5381161;26;20031;-76
2024/04/24 12:09:04;;;;;;;3.07;2.10;;;;;;;;;;5391902;26;19993;-76
2024/04/24 12:11:43;;;;;;;4.57;1.53;;;;;;;;;;5379266;26;19992;-76
2024/04/24 12:14:15;;;;;;;8.30;1.57;;;;;;;;;;5372060;26;20005;-75
2024/04/24 12:16:41;;;;;;;3.60;1.40;;;;;;;;;;5375307;26;20004;-75
2024/04/24 12:19:08;;;;;;;11.23;2.67;;;;;;;;;;5380080;26;19989;-75
2024/04/24 12:21:34;;;;;;;4.30;2.17;;;;;;;;;;5382282;26;19994;-76
2024/04/24 12:24:00;;;;;;;7.90;1.93;;;;;;;;;;5384416;26;19996;-75
2024/04/24 12:26:26;;;;;;;6.10;1.60;;;;;;;;;;5381443;26;19992;-75
2024/04/24 12:28:55;;;;;;;1.57;1.13;;;;;;;;;;5365913;26;20010;-75
2024/04/24 12:31:21;;;;;;;3.50;0.80;;;;;;;;;;5382022;26;20217;-74
2024/04/24 12:33:47;;;;;;;1.13;0.77;;;;;;;;;;5389390;26;20049;-74
2024/04/24 12:36:16;;;;;;;2.23;1.37;;;;;;;;;;5390745;26;20031;-75
2024/04/24 12:38:45;;;;;;;3.47;1.17;;;;;;;;;;5384236;26;19995;-75
2024/04/24 12:41:11;;;;;;;4.17;1.30;;;;;;;;;;5377628;26;20004;-75
2024/04/24 12:43:37;;;;;;;2.70;1.33;;;;;;;;;;5391612;26;20046;-74
2024/04/24 12:46:03;;;;;;;3.47;1.33;;;;;;;;;;5385257;26;19993;-74
2024/04/24 12:48:29;;;;;;;6.33;1.13;;;;;;;;;;5388251;26;20046;-74
2024/04/24 12:50:57;;;;;;;3.07;1.80;;;;;;;;;;5387425;26;20005;-74
2024/04/24 12:53:23;;;;;;;4.50;1.70;;;;;;;;;;5389105;26;20004;-74
2024/04/24 12:55:49;;;;;;;10.10;1.83;;;;;;;;;;5379506;26;20004;-75
2024/04/24 12:58:15;;;;;;;2.60;1.57;;;;;;;;;;5375018;26;20005;-79
2024/04/24 13:00:44;;;;;;;2.00;1.40;;;;;;;;;;5377133;26;20013;-81
2024/04/24 13:03:13;;;;;;;2.57;1.57;;;;;;;;;;5393195;26;19988;-79
2024/04/24 13:05:42;;;;;;;3.40;1.97;;;;;;;;;;5375068;26;19996;-79
2024/04/24 13:08:11;;;;;;;3.27;2.00;;;;;;;;;;5379812;26;21038;-79
2024/04/24 13:10:42;;;;;;;2.63;1.70;;;;;;;;;;5374315;26;19996;-79
2024/04/24 13:13:11;;;;;;;3.37;2.23;;;;;;;;;;5380211;26;19991;-79
2024/04/24 13:15:44;;;;;;;5.27;2.70;;;;;;;;;;5354341;26;19994;-79
2024/04/24 13:18:15;;;;;;;3.70;1.60;;;;;;;;;;5357003;26;19997;-79
2024/04/24 13:20:41;;;;;;;2.50;1.43;;;;;;;;;;5359312;26;20032;-78
2024/04/24 13:23:09;;;;;;;3.63;1.73;;;;;;;;;;5352638;26;20016;-78
2024/04/24 13:25:35;;;;;;;3.07;1.00;;;;;;;;;;5372487;26;19997;-78
2024/04/24 13:28:03;;;;;;;5.10;1.20;;;;;;;;;;5359289;26;19989;-78
2024/04/24 13:30:29;;;;;;;5.50;0.97;;;;;;;;;;5358785;26;20004;-77
2024/04/24 13:32:55;;;;;;;2.07;0.60;;;;;;;;;;5358512;26;19989;-78
2024/04/24 13:35:29;;;;;;;1.03;0.40;;;;;;;;;;5350758;26;19993;-78
2024/04/24 13:37:55;;;;;;;0.97;0.40;;;;;;;;;;5354712;26;20477;-77
2024/04/24 13:40:25;;;;;;;4.87;0.57;;;;;;;;;;5357294;26;20574;-77
2024/04/24 13:42:51;;;;;;;3.87;1.10;;;;;;;;;;5356100;26;19997;-77
2024/04/24 13:45:17;;;;;;;2.07;0.60;;;;;;;;;;5354692;26;19994;-77
2024/04/24 13:47:53;;;;;;;;;;;;;;;;;;;;;
2024/04/24 13:50:25;;;;;;;4.00;1.00;;;;;;;;;;5356112;26;20010;-77
2024/04/24 13:52:53;;;;;;;5.03;2.00;;;;;;;;;;5356524;26;19997;-78
2024/04/24 13:55:25;;;;;;;1.00;0.90;;;;;;;;;;5354004;26;19993;-78
2024/04/24 13:57:54;;;;;;;1.17;0.53;;;;;;;;;;5357727;26;19989;-80
2024/04/24 14:00:20;;;;;;;2.23;0.50;;;;;;;;;;5355960;26;20021;-79
2024/04/24 14:02:48;;;;;;;0.63;0.43;;;;;;;;;;5350798;26;19993;-79
2024/04/24 14:05:14;;;;;;;3.10;0.50;;;;;;;;;;5353213;26;20029;-79
2024/04/24 14:07:40;;;;;;;1.10;0.40;;;;;;;;;;5375545;26;19999;-79
2024/04/24 14:10:06;;;;;;;1.00;0.50;;;;;;;;;;5357449;26;20024;-79
2024/04/24 14:12:33;;;;;;;0.97;0.40;;;;;;;;;;5353357;26;20005;-79
2024/04/24 14:15:09;;;;;;;0.53;0.40;;;;;;;;;;5381332;26;20040;-79
2024/04/24 14:17:37;;;;;;;0.70;0.37;;;;;;;;;;5359782;26;19996;-79
2024/04/24 14:20:03;;;;;;;2.73;0.50;;;;;;;;;;5355873;26;20001;-79
2024/04/24 14:22:36;;;;;;;0.60;0.40;;;;;;;;;;5374817;26;20009;-79
2024/04/24 14:25:03;;;;;;;2.43;0.43;;;;;;;;;;5354946;26;20175;-79
2024/04/24 14:27:31;;;;;;;1.93;0.60;;;;;;;;;;5357771;26;19993;-78
2024/04/24 14:30:04;;;;;;;2.97;0.60;;;;;;;;;;5358939;26;20001;-79
2024/04/24 14:32:30;;;;;;;1.03;0.50;;;;;;;;;;5354887;26;20005;-79
2024/04/24 14:34:56;;;;;;;0.77;0.50;;;;;;;;;;5362414;26;20025;-78
2024/04/24 14:37:29;;;;;;;5.07;0.40;;;;;;;;;;5351425;26;20036;-78
2024/04/24 14:39:55;;;;;;;1.53;0.40;;;;;;;;;;5355605;26;20000;-77
2024/04/24 14:42:24;;;;;;;1.90;0.50;;;;;;;;;;5356879;26;20029;-78
2024/04/24 14:44:57;;;;;;;0.63;0.30;;;;;;;;;;5361103;26;20247;-77
2024/04/24 14:47:24;;;;;;;0.70;0.40;;;;;;;;;;5357665;26;20001;-77
2024/04/24 14:50:08;;;;;;;1.20;0.77;;;;;;;;;;5477145;25;1273835;-76
2024/04/24 14:52:34;;;;;;;2.07;0.73;;;;;;;;;;5491118;25;20001;-77
2024/04/24 14:55:00;;;;;;;2.80;0.70;;;;;;;;;;5461091;26;19990;-76
2024/04/24 14:57:28;;;;;;;1.33;1.23;;;;;;;;;;5500959;26;20048;-76
2024/04/24 15:00:04;;;;;;;;;;;;;;;;;;;;;
2024/04/24 15:02:35;;;;;;;1.77;0.90;;;;;;;;;;5502588;26;20007;-77
2024/04/24 15:05:04;;;;;;;1.57;0.97;;;;;;;;;;5497481;26;20073;-77
2024/04/24 15:07:34;;;;;;;1.07;0.90;;;;;;;;;;5470869;26;20022;-77
2024/04/24 15:10:03;;;;;;;3.10;0.80;;;;;;;;;;5468276;26;19998;-76